Time;durP1;ratioP1;P1;durP2;ratioP2;P2;SDS_P1;SDS_P2;PMS_P1;PMS_P2;Temp;Humidity;BMP_temperature;BMP_pressure;BME280_temperature;BME280_humidity;BME280_pressure;Samples;Min_cycle;Max_cycle;Signal;HPM_P1;HPM_P2
2023/03/07 00:00:04;;;;;;;17.92;13.93;;;-2.00;99.90;;;;;;5027983;28;20394;-82
2023/03/07 00:02:30;;;;;;;19.08;14.48;;;-2.00;99.90;;;;;;5029091;28;20370;-82
2023/03/07 00:04:56;;;;;;;20.60;15.10;;;-2.10;99.90;;;;;;5029467;28;20862;-82
2023/03/07 00:07:21;;;;;;;19.13;14.50;;;-2.10;99.90;;;;;;5028744;28;20899;-81
2023/03/07 00:09:50;;;;;;;19.45;14.25;;;-2.00;99.90;;;;;;5025231;28;20373;-80
2023/03/07 00:12:18;;;;;;;19.13;14.93;;;-2.00;99.90;;;;;;5028278;28;20829;-81
2023/03/07 00:14:43;;;;;;;18.53;14.17;;;-2.10;99.90;;;;;;5011732;28;20392;-82
2023/03/07 00:17:09;;;;;;;18.50;14.83;;;-2.00;99.90;;;;;;5016400;28;20739;-82
2023/03/07 00:19:35;;;;;;;19.67;14.27;;;-1.90;99.90;;;;;;5029231;28;20452;-82
2023/03/07 00:22:02;;;;;;;21.63;15.07;;;-1.80;99.90;;;;;;5029178;28;20435;-82
2023/03/07 00:24:27;;;;;;;20.90;15.10;;;-1.80;99.90;;;;;;5028876;28;20358;-82
2023/03/07 00:26:53;;;;;;;20.40;15.37;;;-1.80;99.90;;;;;;5028426;28;20369;-82
2023/03/07 00:29:19;;;;;;;20.75;15.68;;;-1.70;99.90;;;;;;5028972;28;20453;-82
2023/03/07 00:31:44;;;;;;;23.38;16.75;;;-1.60;99.90;;;;;;5011878;28;20379;-82
2023/03/07 00:34:10;;;;;;;24.15;17.30;;;-1.50;99.90;;;;;;5008924;28;20367;-82
2023/03/07 00:36:36;;;;;;;26.25;18.90;;;-1.40;99.90;;;;;;5008673;28;20375;-82
2023/03/07 00:39:01;;;;;;;26.63;18.83;;;-1.50;99.90;;;;;;5025050;28;20388;-82
2023/03/07 00:41:28;;;;;;;30.45;20.25;;;-1.40;99.90;;;;;;5028766;28;20369;-83
2023/03/07 00:43:55;;;;;;;28.23;20.10;;;-1.40;99.90;;;;;;5016551;28;20387;-83
2023/03/07 00:46:22;;;;;;;30.37;21.23;;;-1.40;99.90;;;;;;5023899;28;20861;-82
2023/03/07 00:48:48;;;;;;;32.50;23.02;;;-1.40;99.90;;;;;;5024245;28;20406;-83
2023/03/07 00:51:15;;;;;;;39.20;25.75;;;-1.30;99.90;;;;;;5014051;28;20397;-82
2023/03/07 00:53:45;;;;;;;40.22;26.35;;;-1.20;99.90;;;;;;5013923;28;20488;-83
2023/03/07 00:56:16;;;;;;;39.72;26.02;;;-1.30;99.90;;;;;;5024983;28;20423;-83
2023/03/07 00:58:42;;;;;;;39.65;25.80;;;-1.20;99.90;;;;;;5031750;28;20405;-82
2023/03/07 01:01:09;;;;;;;39.70;25.93;;;-1.20;99.90;;;;;;5011418;28;20525;-83
2023/03/07 01:03:35;;;;;;;39.65;26.95;;;-1.20;99.90;;;;;;5012417;28;20373;-83
2023/03/07 01:08:29;;;;;;;40.75;26.85;;;-1.10;99.90;;;;;;5023661;28;20903;-82
2023/03/07 01:10:58;;;;;;;38.55;26.33;;;-1.10;99.90;;;;;;5029183;28;20377;-81
2023/03/07 01:13:24;;;;;;;44.30;29.13;;;-1.00;99.90;;;;;;5028377;28;20389;-82
2023/03/07 01:15:50;;;;;;;44.93;29.37;;;-1.10;99.90;;;;;;5030878;28;20479;-82
2023/03/07 01:18:16;;;;;;;44.70;29.73;;;-1.10;99.90;;;;;;5028653;28;20386;-81
2023/03/07 01:20:42;;;;;;;46.28;30.77;;;-1.10;99.90;;;;;;5027790;28;20496;-80
2023/03/07 01:23:08;;;;;;;42.78;28.85;;;-1.00;99.90;;;;;;5030316;28;20393;-81
2023/03/07 01:25:41;;;;;;;45.50;30.73;;;-1.00;99.90;;;;;;5029898;28;20770;-81
2023/03/07 01:28:08;;;;;;;45.10;29.90;;;-1.00;99.90;;;;;;5029898;28;20428;-81
2023/03/07 01:30:33;;;;;;;44.67;29.23;;;-0.90;99.90;;;;;;5030473;28;20382;-82
2023/03/07 01:33:02;;;;;;;41.40;28.80;;;-0.80;99.90;;;;;;5029965;28;20374;-81
2023/03/07 01:35:28;;;;;;;47.28;30.85;;;-0.70;99.90;;;;;;5030865;28;20461;-81
2023/03/07 01:37:54;;;;;;;42.60;29.70;;;-0.70;99.90;;;;;;5029469;28;20382;-81
2023/03/07 01:40:22;;;;;;;42.35;28.55;;;-0.50;99.90;;;;;;5029438;28;20493;-82
2023/03/07 01:42:48;;;;;;;42.85;29.33;;;-0.30;99.90;;;;;;5030229;28;20387;-81
2023/03/07 01:45:13;;;;;;;40.70;28.60;;;-0.30;99.90;;;;;;5029830;28;20468;-81
2023/03/07 01:47:42;;;;;;;45.53;30.27;;;-0.20;99.90;;;;;;5029451;28;20389;-82
2023/03/07 01:50:12;;;;;;;46.83;30.90;;;-0.30;99.90;;;;;;5029767;28;21066;-82
2023/03/07 01:52:42;;;;;;;43.08;29.52;;;-0.20;99.90;;;;;;5029910;28;20378;-82
2023/03/07 01:55:15;;;;;;;44.65;31.00;;;-0.20;99.90;;;;;;5020373;28;20478;-82
2023/03/07 01:57:43;;;;;;;48.92;32.03;;;-0.10;99.90;;;;;;5013055;28;20401;-82
2023/03/07 02:00:17;;;;;;;50.60;32.35;;;0.00;99.90;;;;;;5024129;28;20409;-81
2023/03/07 02:02:46;;;;;;;46.33;31.40;;;-0.10;99.90;;;;;;5027524;28;20484;-81
2023/03/07 02:05:33;;;;;;;46.83;31.13;;;0.00;99.90;;;;;;5027802;28;20934;-82
2023/03/07 02:08:01;;;;;;;45.10;30.10;;;0.10;99.90;;;;;;5026645;28;20796;-82
2023/03/07 02:10:27;;;;;;;47.80;31.95;;;0.20;99.90;;;;;;5026380;28;20480;-82
2023/03/07 02:12:53;;;;;;;51.40;33.47;;;0.20;99.90;;;;;;5027179;28;20487;-81
2023/03/07 02:15:19;;;;;;;50.60;33.70;;;0.10;99.90;;;;;;5026614;28;20451;-82
2023/03/07 02:17:46;;;;;;;50.03;32.08;;;0.30;99.90;;;;;;5027966;28;20393;-82
2023/03/07 02:20:30;;;;;;;49.85;34.72;;;0.20;99.90;;;;;;5026889;28;20397;-82
2023/03/07 02:22:56;;;;;;;49.70;33.97;;;0.30;99.90;;;;;;5009019;28;20409;-81
2023/03/07 02:25:52;;;;;;;54.25;36.03;;;0.40;99.90;;;;;;5007243;28;20462;-82
2023/03/07 02:28:18;;;;;;;56.80;36.50;;;0.30;99.90;;;;;;5007815;28;20498;-82
2023/03/07 02:31:01;;;;;;;53.90;36.38;;;0.40;99.90;;;;;;5017272;28;20417;-81
2023/03/07 02:33:27;;;;;;;53.00;35.78;;;0.50;99.90;;;;;;4997625;28;20897;-81
2023/03/07 02:36:00;;;;;;;58.95;36.38;;;0.60;99.90;;;;;;5003810;28;20425;-81
2023/03/07 02:38:28;;;;;;;54.88;37.05;;;0.50;99.90;;;;;;4995684;28;20395;-82
2023/03/07 02:40:55;;;;;;;56.65;38.10;;;0.50;99.90;;;;;;4998020;28;20926;-81
2023/03/07 02:43:21;;;;;;;61.47;38.50;;;0.50;99.90;;;;;;4998370;28;20393;-80
2023/03/07 02:45:47;;;;;;;58.28;38.83;;;0.40;99.90;;;;;;4997515;28;21062;-80
2023/03/07 02:48:13;;;;;;;60.40;39.22;;;0.50;99.90;;;;;;4997387;28;20424;-81
2023/03/07 02:50:39;;;;;;;61.88;39.90;;;0.30;99.90;;;;;;5008774;28;20894;-81
2023/03/07 02:53:04;;;;;;;63.75;40.33;;;0.40;99.90;;;;;;5016848;28;20398;-82
2023/03/07 02:55:30;;;;;;;60.50;40.42;;;0.50;99.90;;;;;;5027076;28;20409;-82
2023/03/07 02:57:56;;;;;;;64.18;40.65;;;0.50;99.90;;;;;;5025632;28;20382;-83
2023/03/07 03:00:22;;;;;;;62.20;39.63;;;0.40;99.90;;;;;;5024897;28;20405;-82
2023/03/07 03:02:48;;;;;;;59.67;39.25;;;0.50;99.90;;;;;;5026576;28;20400;-81
2023/03/07 03:05:13;;;;;;;63.30;41.22;;;0.70;99.90;;;;;;5024831;28;20413;-80
2023/03/07 03:07:39;;;;;;;63.90;40.77;;;0.60;99.90;;;;;;5027364;28;20407;-81
2023/03/07 03:10:05;;;;;;;68.10;42.93;;;0.50;99.90;;;;;;5025268;28;20772;-81
2023/03/07 03:12:31;;;;;;;70.30;42.97;;;0.60;99.90;;;;;;5026296;28;20411;-82
2023/03/07 03:14:57;;;;;;;68.88;42.92;;;0.60;99.90;;;;;;5025946;28;20409;-81
2023/03/07 03:17:23;;;;;;;66.22;42.97;;;0.70;99.90;;;;;;5026187;28;20398;-81
2023/03/07 03:19:48;;;;;;;65.68;42.65;;;0.70;99.90;;;;;;5026236;28;20922;-81
2023/03/07 03:22:14;;;;;;;67.80;42.83;;;0.80;99.90;;;;;;5025095;28;20452;-80
2023/03/07 03:24:42;;;;;;;68.25;43.65;;;0.80;99.90;;;;;;5023741;28;20425;-81
2023/03/07 03:27:09;;;;;;;69.05;43.97;;;0.90;99.90;;;;;;5026855;28;20397;-81
2023/03/07 03:29:34;;;;;;;70.80;45.47;;;0.80;99.90;;;;;;5026292;28;20405;-81
2023/03/07 03:32:01;;;;;;;70.40;44.83;;;0.80;99.90;;;;;;5024594;28;20761;-81
2023/03/07 03:34:26;;;;;;;67.60;44.17;;;0.80;99.90;;;;;;5025333;28;20455;-81
2023/03/07 03:36:52;;;;;;;68.68;44.00;;;0.90;99.90;;;;;;5025107;28;20900;-82
2023/03/07 03:39:18;;;;;;;65.75;42.55;;;1.00;99.90;;;;;;5026024;28;20455;-81
2023/03/07 03:41:44;;;;;;;65.93;41.92;;;1.00;99.90;;;;;;5024570;28;20752;-81
2023/03/07 03:44:10;;;;;;;61.58;41.40;;;1.00;99.90;;;;;;5027174;28;20403;-81
2023/03/07 03:46:36;;;;;;;64.60;41.13;;;1.00;99.90;;;;;;5025873;28;20382;-80
2023/03/07 03:49:02;;;;;;;59.63;41.10;;;1.00;99.90;;;;;;5027372;28;20425;-81
2023/03/07 03:51:29;;;;;;;57.63;38.88;;;1.10;99.90;;;;;;5034199;28;20386;-81
2023/03/07 03:53:57;;;;;;;58.72;39.60;;;1.30;99.90;;;;;;5030832;28;20453;-81
2023/03/07 03:56:25;;;;;;;56.93;38.70;;;1.20;99.90;;;;;;5028278;28;20429;-81
2023/03/07 03:58:54;;;;;;;58.60;39.37;;;1.20;99.90;;;;;;5027806;28;20434;-81
2023/03/07 04:01:22;;;;;;;60.28;40.40;;;1.20;99.90;;;;;;5026703;28;20408;-81
2023/03/07 04:03:50;;;;;;;58.92;39.35;;;1.20;99.90;;;;;;5027310;28;20374;-81
2023/03/07 04:06:24;;;;;;;57.50;38.37;;;1.40;99.90;;;;;;5026673;28;20523;-81
2023/03/07 04:08:51;;;;;;;58.60;40.83;;;1.30;99.90;;;;;;5015025;28;20401;-81
2023/03/07 04:11:18;;;;;;;61.95;40.20;;;1.30;99.90;;;;;;5017255;28;20377;-81
2023/03/07 04:13:44;;;;;;;58.03;39.42;;;1.40;99.90;;;;;;5026802;28;20376;-81
2023/03/07 04:16:10;;;;;;;62.03;41.20;;;1.30;99.90;;;;;;5026777;28;20377;-81
2023/03/07 04:18:36;;;;;;;59.97;39.40;;;1.40;99.90;;;;;;5026346;28;20421;-81
2023/03/07 04:21:03;;;;;;;63.05;40.17;;;1.30;99.90;;;;;;5026845;28;20417;-81
2023/03/07 04:23:29;;;;;;;60.25;39.53;;;1.30;99.90;;;;;;5029507;28;20377;-81
2023/03/07 04:25:57;;;;;;;63.77;41.37;;;1.20;99.90;;;;;;5030941;28;20435;-82
2023/03/07 04:28:40;;;;;;;60.92;40.58;;;1.30;99.90;;;;;;5028238;28;20495;-82
2023/03/07 04:31:05;;;;;;;61.78;40.03;;;1.40;99.90;;;;;;5030890;28;20756;-82
2023/03/07 04:33:31;;;;;;;59.50;39.15;;;1.40;99.90;;;;;;5030271;28;20374;-81
2023/03/07 04:35:57;;;;;;;60.80;39.72;;;1.40;99.90;;;;;;5030808;28;20873;-81
2023/03/07 04:38:22;;;;;;;60.27;39.53;;;1.30;99.90;;;;;;5028892;28;20571;-82
2023/03/07 04:40:48;;;;;;;65.83;40.90;;;1.30;99.90;;;;;;5030233;28;20405;-82
2023/03/07 04:43:13;;;;;;;64.93;40.63;;;1.30;99.90;;;;;;5029314;28;20404;-81
2023/03/07 04:45:39;;;;;;;67.82;42.85;;;1.30;99.90;;;;;;5028177;28;20404;-82
2023/03/07 04:48:05;;;;;;;63.80;40.97;;;1.30;99.90;;;;;;5028568;28;20378;-81
2023/03/07 04:50:31;;;;;;;64.28;41.85;;;1.30;99.90;;;;;;5026742;28;20412;-81
2023/03/07 04:52:57;;;;;;;68.45;42.72;;;1.20;99.90;;;;;;5028148;28;20409;-81
2023/03/07 04:55:22;;;;;;;67.82;43.40;;;1.20;99.90;;;;;;5028555;28;20464;-81
2023/03/07 04:57:50;;;;;;;71.63;43.70;;;1.20;99.90;;;;;;5029524;28;20394;-80
2023/03/07 05:00:16;;;;;;;71.82;44.50;;;1.20;99.90;;;;;;5029504;28;20445;-82
2023/03/07 05:02:41;;;;;;;73.57;45.40;;;1.10;99.90;;;;;;5019542;28;20393;-81
2023/03/07 05:05:07;;;;;;;75.35;45.75;;;1.10;99.90;;;;;;5030651;28;20384;-80
2023/03/07 05:07:33;;;;;;;74.28;45.65;;;1.10;99.90;;;;;;5029471;28;20397;-80
2023/03/07 05:09:59;;;;;;;74.63;46.07;;;1.10;99.90;;;;;;5031067;28;20488;-81
2023/03/07 05:12:24;;;;;;;79.33;46.37;;;1.10;99.90;;;;;;5030219;28;20416;-81
2023/03/07 05:14:50;;;;;;;80.57;47.10;;;1.00;99.90;;;;;;5028913;28;20448;-81
2023/03/07 05:17:17;;;;;;;84.85;49.33;;;1.00;99.90;;;;;;5029992;28;20384;-81
2023/03/07 05:19:43;;;;;;;76.00;44.42;;;1.00;99.90;;;;;;5029311;28;20810;-81
2023/03/07 05:22:08;;;;;;;79.33;46.43;;;1.10;99.90;;;;;;5029608;28;20377;-81
2023/03/07 05:24:34;;;;;;;78.17;45.87;;;1.10;99.90;;;;;;5029668;28;20451;-81
2023/03/07 05:27:00;;;;;;;82.55;46.80;;;1.00;99.90;;;;;;5029415;28;20377;-81
2023/03/07 05:29:26;;;;;;;81.73;48.00;;;1.00;99.90;;;;;;5029765;28;20393;-82
2023/03/07 05:31:52;;;;;;;83.22;47.83;;;1.00;99.90;;;;;;5029863;28;20366;-82
2023/03/07 05:34:18;;;;;;;85.27;47.13;;;0.90;99.90;;;;;;5029318;28;21005;-81
2023/03/07 05:36:43;;;;;;;85.87;49.33;;;1.00;99.90;;;;;;5028611;28;20391;-81
2023/03/07 05:39:09;;;;;;;83.67;47.50;;;1.00;99.90;;;;;;5028116;28;20900;-82
2023/03/07 05:41:35;;;;;;;78.93;47.37;;;1.00;99.90;;;;;;5028534;28;20450;-82
2023/03/07 05:44:02;;;;;;;78.73;47.27;;;1.10;99.90;;;;;;5027949;28;20887;-82
2023/03/07 05:46:27;;;;;;;82.43;48.67;;;1.10;99.90;;;;;;5027312;28;20946;-80
2023/03/07 05:48:54;;;;;;;82.70;47.55;;;1.10;99.90;;;;;;5029363;28;20508;-81
2023/03/07 05:51:20;;;;;;;81.00;46.65;;;1.00;99.90;;;;;;5018250;28;20397;-81
2023/03/07 05:53:45;;;;;;;80.40;47.15;;;1.10;99.90;;;;;;5015190;28;20998;-80
2023/03/07 05:56:11;;;;;;;74.90;45.10;;;1.10;99.90;;;;;;5018826;28;20389;-81
2023/03/07 05:58:37;;;;;;;76.25;45.15;;;1.10;99.90;;;;;;5019186;28;20397;-81
2023/03/07 06:01:03;;;;;;;78.72;45.83;;;1.20;99.90;;;;;;5017715;28;20508;-82
2023/03/07 06:03:30;;;;;;;68.97;42.13;;;1.20;99.90;;;;;;5017079;28;20399;-82
2023/03/07 06:05:55;;;;;;;70.43;42.38;;;1.20;99.90;;;;;;5017069;28;20402;-82
2023/03/07 06:08:21;;;;;;;69.50;42.03;;;1.30;99.90;;;;;;5019895;28;20405;-82
2023/03/07 06:10:52;;;;;;;66.65;41.22;;;1.30;99.90;;;;;;5017217;28;20403;-82
2023/03/07 06:13:23;;;;;;;63.92;40.33;;;1.30;99.90;;;;;;5016241;28;20397;-82
2023/03/07 06:15:50;;;;;;;63.38;40.80;;;1.40;99.90;;;;;;5022150;28;20791;-81
2023/03/07 06:18:16;;;;;;;62.40;39.25;;;1.40;99.90;;;;;;5027556;28;20377;-81
2023/03/07 06:20:42;;;;;;;57.90;38.42;;;1.40;99.90;;;;;;5027210;28;20417;-82
2023/03/07 06:23:08;;;;;;;55.73;36.60;;;1.40;99.90;;;;;;5028692;28;20465;-82
2023/03/07 06:25:33;;;;;;;54.40;35.95;;;1.50;99.90;;;;;;5026659;28;20460;-82
2023/03/07 06:28:00;;;;;;;51.83;34.42;;;1.60;99.90;;;;;;5028045;28;20386;-81
2023/03/07 06:30:29;;;;;;;47.63;32.15;;;1.60;99.90;;;;;;5028206;28;20397;-81
2023/03/07 06:32:54;;;;;;;46.08;33.67;;;1.70;99.90;;;;;;5028832;28;20373;-80
2023/03/07 06:35:20;;;;;;;44.03;29.77;;;1.80;99.90;;;;;;5028048;28;20463;-81
2023/03/07 06:37:46;;;;;;;43.90;30.97;;;1.70;99.90;;;;;;5026974;28;20385;-81
2023/03/07 06:40:11;;;;;;;43.93;30.60;;;1.80;99.90;;;;;;5028145;28;20441;-82
2023/03/07 06:42:37;;;;;;;41.37;29.37;;;1.80;99.90;;;;;;5028435;28;20439;-80
2023/03/07 06:45:03;;;;;;;44.03;30.33;;;1.70;99.90;;;;;;5027888;28;20370;-81
2023/03/07 06:47:29;;;;;;;43.58;30.23;;;1.80;99.90;;;;;;5025919;28;20469;-80
2023/03/07 06:49:55;;;;;;;38.87;26.93;;;1.80;99.90;;;;;;5027983;28;20933;-82
2023/03/07 06:52:21;;;;;;;37.43;27.13;;;1.80;99.90;;;;;;5028542;28;20412;-82
2023/03/07 06:54:47;;;;;;;35.28;26.67;;;2.00;99.90;;;;;;5028103;28;20775;-82
2023/03/07 06:57:13;;;;;;;36.45;26.60;;;2.10;99.90;;;;;;5027493;28;20417;-82
2023/03/07 06:59:38;;;;;;;37.67;26.73;;;2.00;99.90;;;;;;5027866;28;20798;-82
2023/03/07 07:02:06;;;;;;;38.20;27.50;;;2.00;99.90;;;;;;5026714;28;20385;-82
2023/03/07 07:04:32;;;;;;;35.35;25.40;;;2.00;99.90;;;;;;5027550;28;20907;-82
2023/03/07 07:06:58;;;;;;;33.50;24.25;;;2.00;99.90;;;;;;5026066;28;20795;-82
2023/03/07 07:09:24;;;;;;;30.77;23.48;;;2.10;99.90;;;;;;5028611;28;20374;-83
2023/03/07 07:11:50;;;;;;;30.77;23.35;;;2.30;99.90;;;;;;5028456;28;21052;-82
2023/03/07 07:14:15;;;;;;;31.58;23.73;;;2.30;99.90;;;;;;5028167;28;20405;-82
2023/03/07 07:16:41;;;;;;;31.00;22.20;;;2.30;99.90;;;;;;5027404;28;20373;-82
2023/03/07 07:19:08;;;;;;;30.33;22.40;;;2.20;99.90;;;;;;5027808;28;20374;-83
2023/03/07 07:21:34;;;;;;;28.92;22.05;;;2.20;99.90;;;;;;5027865;28;20409;-83
2023/03/07 07:24:00;;;;;;;28.52;22.73;;;2.30;99.90;;;;;;5028746;28;20935;-83
2023/03/07 07:26:26;;;;;;;29.73;21.90;;;2.30;99.90;;;;;;5026789;28;20740;-83
2023/03/07 07:28:52;;;;;;;28.92;21.40;;;2.30;99.90;;;;;;5028803;28;20449;-85
2023/03/07 07:31:18;;;;;;;27.00;21.52;;;2.40;99.90;;;;;;5023720;28;20382;-87
2023/03/07 07:33:45;;;;;;;25.47;19.33;;;2.50;99.90;;;;;;5019966;28;21481;-85
2023/03/07 07:36:11;;;;;;;24.88;19.90;;;2.50;99.90;;;;;;5023350;28;20649;-86
2023/03/07 07:38:37;;;;;;;24.75;19.30;;;2.60;99.90;;;;;;5021201;28;20387;-87
2023/03/07 07:41:03;;;;;;;25.85;19.33;;;2.60;99.90;;;;;;5023793;28;21049;-79
2023/03/07 07:43:29;;;;;;;24.20;18.85;;;2.60;99.90;;;;;;5032843;28;20863;-87
2023/03/07 07:45:55;;;;;;;26.63;20.67;;;2.70;99.90;;;;;;5033991;28;20420;-87
2023/03/07 07:48:21;;;;;;;26.98;20.98;;;2.70;99.90;;;;;;5031813;28;20381;-86
2023/03/07 07:50:47;;;;;;;24.60;19.35;;;2.80;99.90;;;;;;5032604;28;20378;-87
2023/03/07 07:53:13;;;;;;;22.35;18.58;;;2.80;99.90;;;;;;5021636;28;20420;-86
2023/03/07 07:55:39;;;;;;;23.05;18.77;;;2.90;99.90;;;;;;5029580;28;20380;-87
2023/03/07 07:58:05;;;;;;;22.17;17.75;;;2.90;99.90;;;;;;5031103;28;21065;-85
2023/03/07 08:00:31;;;;;;;22.92;18.42;;;2.90;99.90;;;;;;5032565;28;21088;-86
2023/03/07 08:02:58;;;;;;;24.58;18.80;;;2.90;99.90;;;;;;5022178;28;20410;-86
2023/03/07 08:05:24;;;;;;;23.27;19.33;;;2.90;99.90;;;;;;5030356;28;20890;-86
2023/03/07 08:07:50;;;;;;;23.13;18.42;;;2.80;99.90;;;;;;5025312;28;20397;-87
2023/03/07 08:10:18;;;;;;;22.33;18.38;;;2.90;99.90;;;;;;5024491;28;20424;-86
2023/03/07 08:12:47;;;;;;;24.40;19.27;;;2.80;99.90;;;;;;5014375;28;20776;-85
2023/03/07 08:15:15;;;;;;;24.33;19.02;;;2.80;99.90;;;;;;5031294;28;20388;-86
2023/03/07 08:17:41;;;;;;;23.70;19.27;;;2.80;99.90;;;;;;5033009;28;20408;-86
2023/03/07 08:20:08;;;;;;;23.83;18.30;;;2.80;99.90;;;;;;5031878;28;20409;-86
2023/03/07 08:22:37;;;;;;;24.77;19.23;;;2.80;99.90;;;;;;5030956;28;20843;-86
2023/03/07 08:25:06;;;;;;;24.83;19.88;;;2.80;99.90;;;;;;5033567;28;21095;-87
2023/03/07 08:27:33;;;;;;;26.30;20.45;;;2.80;99.90;;;;;;5031029;28;20385;-85
2023/03/07 08:30:00;;;;;;;26.58;21.05;;;2.90;99.90;;;;;;5016696;28;20404;-86
2023/03/07 08:32:26;;;;;;;25.73;20.67;;;2.90;99.90;;;;;;5024958;28;20418;-87
2023/03/07 08:34:52;;;;;;;26.63;20.60;;;3.00;99.90;;;;;;5023437;28;20393;-88
2023/03/07 08:37:18;;;;;;;24.57;20.10;;;3.20;99.90;;;;;;5021531;28;20438;-87
2023/03/07 08:39:44;;;;;;;24.60;19.87;;;3.20;99.90;;;;;;5023298;28;20441;-85
2023/03/07 08:42:11;;;;;;;27.27;20.73;;;3.20;99.90;;;;;;5026130;28;20879;-86
2023/03/07 08:44:37;;;;;;;26.05;20.33;;;3.30;99.90;;;;;;5023575;28;20424;-85
2023/03/07 08:47:03;;;;;;;23.87;19.77;;;3.40;99.90;;;;;;5015501;28;20401;-85
2023/03/07 08:49:28;;;;;;;24.97;20.10;;;3.40;99.90;;;;;;5029045;28;20388;-84
2023/03/07 08:51:54;;;;;;;26.50;20.60;;;3.40;99.90;;;;;;5014046;28;20406;-85
2023/03/07 08:54:22;;;;;;;23.30;19.20;;;3.40;99.90;;;;;;5026110;28;20874;-86
2023/03/07 08:56:48;;;;;;;24.15;19.10;;;3.60;99.90;;;;;;5029176;28;20396;-85
2023/03/07 08:59:14;;;;;;;25.88;19.52;;;3.70;99.90;;;;;;5030380;28;20390;-85
2023/03/07 09:01:40;;;;;;;22.35;18.55;;;3.70;99.90;;;;;;5029691;28;20407;-86
2023/03/07 09:04:06;;;;;;;22.95;18.83;;;3.60;99.90;;;;;;5029970;28;20432;-85
2023/03/07 09:06:31;;;;;;;22.05;18.33;;;3.60;99.90;;;;;;5029066;28;20425;-85
2023/03/07 09:08:57;;;;;;;23.13;18.40;;;3.70;99.90;;;;;;5019107;28;20466;-86
2023/03/07 09:11:25;;;;;;;20.93;16.70;;;3.90;99.90;;;;;;5010373;28;20862;-86
2023/03/07 09:13:51;;;;;;;18.90;16.10;;;4.20;99.90;;;;;;5020843;28;20402;-85
2023/03/07 09:16:17;;;;;;;19.30;15.85;;;4.50;99.90;;;;;;5028404;28;20863;-84
2023/03/07 09:18:42;;;;;;;19.10;15.23;;;4.30;99.90;;;;;;5023842;28;20592;-85
2023/03/07 09:21:08;;;;;;;15.10;12.98;;;4.30;99.90;;;;;;5029001;28;20485;-85
2023/03/07 09:23:34;;;;;;;16.58;13.00;;;4.10;99.90;;;;;;5028484;28;20393;-86
2023/03/07 09:26:02;;;;;;;15.40;11.93;;;4.20;99.90;;;;;;5028527;28;20377;-84
2023/03/07 09:28:28;;;;;;;14.57;12.27;;;4.20;99.90;;;;;;5028260;28;20392;-85
2023/03/07 09:30:55;;;;;;;16.00;12.50;;;4.20;99.90;;;;;;5030907;28;20884;-86
2023/03/07 09:33:23;;;;;;;14.82;12.15;;;4.30;99.90;;;;;;5030472;28;20370;-85
2023/03/07 09:35:49;;;;;;;14.73;12.57;;;4.30;99.90;;;;;;5029145;28;20435;-85
2023/03/07 09:38:15;;;;;;;13.93;12.17;;;4.30;99.90;;;;;;5030322;28;20910;-83
2023/03/07 09:40:46;;;;;;;13.47;12.07;;;4.50;99.90;;;;;;5029119;28;20413;-85
2023/03/07 09:43:25;;;;;;;12.30;11.00;;;4.50;99.90;;;;;;5030447;28;20384;-84
2023/03/07 09:46:25;;;;;;;12.05;9.93;;;4.70;99.90;;;;;;5029888;28;20405;-84
2023/03/07 09:49:04;;;;;;;11.75;10.18;;;4.60;99.90;;;;;;5028650;28;20446;-86
2023/03/07 09:51:36;;;;;;;11.30;9.50;;;4.60;99.90;;;;;;5029537;28;20385;-85
2023/03/07 09:54:12;;;;;;;10.77;9.30;;;4.70;99.90;;;;;;5023737;28;20501;-85
2023/03/07 09:56:57;;;;;;;10.00;8.77;;;4.70;99.90;;;;;;5027501;28;20950;-85
2023/03/07 09:59:50;;;;;;;10.30;9.20;;;4.90;99.90;;;;;;5029699;28;20381;-84
2023/03/07 10:02:54;;;;;;;10.98;8.48;;;5.20;99.90;;;;;;5010745;28;20391;-85
2023/03/07 10:05:58;;;;;;;9.23;7.97;;;5.40;99.90;;;;;;5023921;28;20413;-86
2023/03/07 10:08:29;;;;;;;10.40;8.63;;;5.70;99.90;;;;;;5023242;28;20860;-85
2023/03/07 10:11:17;;;;;;;10.27;8.05;;;5.70;99.90;;;;;;5028584;28;20395;-85
2023/03/07 10:13:48;;;;;;;10.30;8.73;;;5.60;99.90;;;;;;5027568;28;20394;-84
2023/03/07 10:16:38;;;;;;;12.35;9.75;;;5.90;99.90;;;;;;5011522;28;20553;-84
2023/03/07 10:19:03;;;;;;;9.68;7.68;;;5.70;99.90;;;;;;5027254;28;20397;-84
2023/03/07 10:21:48;;;;;;;9.30;7.35;;;5.40;99.90;;;;;;5024964;28;21135;-85
2023/03/07 10:24:52;;;;;;;10.18;8.00;;;5.40;99.90;;;;;;5007952;28;21443;-84
2023/03/07 10:27:21;;;;;;;10.25;8.52;;;5.50;99.90;;;;;;5026009;28;20460;-85
2023/03/07 10:29:54;;;;;;;9.50;8.45;;;5.40;99.90;;;;;;5029261;28;20377;-83
2023/03/07 10:32:35;;;;;;;9.30;7.70;;;5.30;99.90;;;;;;5027500;28;20404;-84
2023/03/07 10:35:10;;;;;;;9.25;7.82;;;5.30;99.90;;;;;;5026368;28;20494;-84
2023/03/07 10:38:04;;;;;;;7.00;6.10;;;5.30;99.90;;;;;;5011963;28;20491;-85
2023/03/07 10:40:38;;;;;;;7.65;5.82;;;5.30;99.90;;;;;;5010026;28;20413;-85
2023/03/07 10:43:05;;;;;;;4.85;4.25;;;5.40;99.90;;;;;;5025791;28;20413;-86
2023/03/07 10:45:32;;;;;;;5.00;3.40;;;5.50;99.90;;;;;;5028542;28;20460;-85
2023/03/07 10:48:14;;;;;;;5.00;3.67;;;5.80;99.90;;;;;;5027273;28;20385;-86
2023/03/07 10:50:54;;;;;;;6.50;3.40;;;6.10;99.90;;;;;;5023079;28;20459;-86
2023/03/07 10:53:30;;;;;;;5.05;2.78;;;6.20;99.90;;;;;;5027660;28;20384;-85
2023/03/07 10:56:17;;;;;;;4.80;2.65;;;6.50;99.90;;;;;;5027732;28;20801;-84
2023/03/07 10:59:06;;;;;;;4.40;2.95;;;6.30;99.90;;;;;;5027964;28;20479;-84
2023/03/07 11:01:53;;;;;;;3.70;2.42;;;6.10;99.90;;;;;;5021642;28;20443;-85
2023/03/07 11:04:26;;;;;;;4.22;2.30;;;6.00;99.90;;;;;;5022148;28;20393;-85
2023/03/07 11:06:57;;;;;;;3.30;2.00;;;6.10;99.90;;;;;;5029340;28;20934;-86
2023/03/07 11:09:29;;;;;;;3.60;1.95;;;5.90;99.90;;;;;;5028621;28;20848;-85
2023/03/07 11:12:04;;;;;;;4.32;2.13;;;5.90;99.90;;;;;;5026344;28;20409;-86
2023/03/07 11:14:44;;;;;;;2.78;2.00;;;5.70;99.90;;;;;;5027719;28;20389;-84
2023/03/07 11:17:20;;;;;;;4.32;2.33;;;5.70;99.90;;;;;;5026625;28;20439;-86
2023/03/07 11:19:47;;;;;;;3.53;2.15;;;5.60;99.90;;;;;;5027767;28;20413;-85
2023/03/07 11:22:26;;;;;;;3.63;1.88;;;5.70;99.90;;;;;;5026677;28;20401;-86
2023/03/07 11:24:57;;;;;;;4.03;2.00;;;5.60;99.90;;;;;;5028154;28;20448;-85
2023/03/07 11:27:45;;;;;;;5.05;1.70;;;5.60;99.90;;;;;;5024931;28;20516;-84
2023/03/07 11:30:16;;;;;;;3.90;1.88;;;5.40;99.90;;;;;;5026289;28;20868;-85
2023/03/07 11:33:08;;;;;;;3.70;1.90;;;5.60;99.90;;;;;;5025674;28;20492;-86
2023/03/07 11:35:43;;;;;;;4.30;1.70;;;5.50;99.90;;;;;;5035515;28;20393;-86
2023/03/07 11:38:25;;;;;;;3.15;1.50;;;5.40;99.90;;;;;;5026109;28;20382;-85
2023/03/07 11:41:07;;;;;;;5.88;2.03;;;5.30;99.90;;;;;;5011283;28;20431;-85
2023/03/07 11:43:47;;;;;;;3.15;1.80;;;5.30;99.90;;;;;;5024401;28;20441;-85
2023/03/07 11:46:26;;;;;;;3.85;1.75;;;5.10;99.90;;;;;;5026854;28;20502;-85
2023/03/07 11:49:12;;;;;;;3.05;1.80;;;5.00;99.90;;;;;;5024312;28;20456;-86
2023/03/07 11:52:04;;;;;;;4.35;1.80;;;5.00;99.90;;;;;;5027416;28;20811;-84
2023/03/07 11:55:03;;;;;;;3.65;1.60;;;4.90;99.90;;;;;;5028320;28;20377;-85
2023/03/07 11:58:06;;;;;;;3.45;2.00;;;5.20;99.90;;;;;;5027751;28;20760;-85
2023/03/07 12:00:50;;;;;;;3.08;1.75;;;4.90;99.90;;;;;;5027567;28;20807;-84
2023/03/07 12:03:20;;;;;;;5.88;1.80;;;4.70;99.90;;;;;;5026949;28;20455;-85
2023/03/07 12:06:07;;;;;;;3.00;1.50;;;4.60;99.90;;;;;;5028369;28;20397;-84
2023/03/07 12:08:50;;;;;;;2.80;1.83;;;4.50;99.90;;;;;;5026698;28;20504;-86
2023/03/07 12:11:23;;;;;;;4.65;1.90;;;4.20;99.90;;;;;;5028198;28;20779;-87
2023/03/07 12:13:53;;;;;;;2.85;1.50;;;4.20;99.90;;;;;;5025194;28;20421;-84
2023/03/07 12:16:56;;;;;;;4.00;2.13;;;4.00;99.90;;;;;;5027410;28;20389;-84
2023/03/07 12:19:31;;;;;;;5.03;2.40;;;4.00;99.90;;;;;;5026447;28;20374;-84
2023/03/07 12:22:15;;;;;;;5.60;2.75;;;4.00;99.90;;;;;;5028444;28;20973;-85
2023/03/07 12:25:04;;;;;;;3.45;2.05;;;3.90;99.90;;;;;;5025168;28;20397;-87
2023/03/07 12:27:39;;;;;;;3.58;2.30;;;3.80;99.90;;;;;;5026668;28;20394;-86
2023/03/07 12:30:13;;;;;;;4.15;2.28;;;3.80;99.90;;;;;;5028560;28;20728;-87
2023/03/07 12:32:39;;;;;;;5.68;2.70;;;3.90;99.90;;;;;;5025253;28;21016;-87
2023/03/07 12:35:07;;;;;;;5.50;2.45;;;3.90;99.90;;;;;;5007498;28;20475;-85
2023/03/07 12:37:43;;;;;;;3.67;2.30;;;3.90;99.90;;;;;;5008312;28;20417;-84
2023/03/07 12:40:24;;;;;;;4.60;2.30;;;3.80;99.90;;;;;;5008887;28;20446;-86
2023/03/07 12:43:04;;;;;;;5.28;2.50;;;3.80;99.90;;;;;;5006982;28;20387;-86
2023/03/07 12:45:47;;;;;;;3.42;2.17;;;3.80;99.90;;;;;;5029803;28;20386;-85
2023/03/07 12:48:50;;;;;;;4.60;2.40;;;3.90;99.90;;;;;;5030306;28;20424;-85
2023/03/07 12:51:32;;;;;;;3.95;2.30;;;3.90;99.90;;;;;;5032053;28;20388;-85
2023/03/07 12:54:26;;;;;;;5.50;2.35;;;3.80;99.90;;;;;;5031609;28;20401;-85
2023/03/07 12:56:59;;;;;;;3.95;2.40;;;3.70;99.90;;;;;;5031106;28;20388;-85